createdAt,value
2022-12-20T00:01:39.748Z,96706.55
2022-12-20T00:04:06.090Z,96708.15
2022-12-20T00:06:32.410Z,96713.77
2022-12-20T00:08:58.753Z,96711.19
2022-12-20T00:11:25.154Z,96711.90
2022-12-20T00:13:51.505Z,96713.57
2022-12-20T00:16:17.941Z,96716.27
2022-12-20T00:18:44.267Z,96728.06
2022-12-20T00:21:10.655Z,96720.03
2022-12-20T00:23:36.998Z,96726.11
2022-12-20T00:26:03.394Z,96732.50
2022-12-20T00:28:29.736Z,96728.63
2022-12-20T00:30:56.123Z,96734.36
2022-12-20T00:33:22.467Z,96732.30
2022-12-20T00:35:48.865Z,96727.89
2022-12-20T00:38:15.209Z,96731.01
2022-12-20T00:40:41.598Z,96721.58
2022-12-20T00:43:07.946Z,96715.05
2022-12-20T00:45:34.335Z,96724.66
2022-12-20T00:48:00.682Z,96720.67
2022-12-20T00:50:27.072Z,96718.19
2022-12-20T00:52:53.409Z,96716.24
2022-12-20T00:55:19.807Z,96713.02
2022-12-20T00:57:46.154Z,96715.23
2022-12-20T01:00:12.552Z,96719.55
2022-12-20T01:02:39.036Z,96726.47
2022-12-20T01:05:05.326Z,96730.35
2022-12-20T01:07:31.659Z,96724.34
2022-12-20T01:09:58.053Z,96722.70
2022-12-20T01:12:24.399Z,96729.89
2022-12-20T01:14:50.785Z,96722.14
2022-12-20T01:17:17.129Z,96719.17
2022-12-20T01:19:43.515Z,96719.73
2022-12-20T01:22:09.883Z,96722.88
2022-12-20T01:24:36.272Z,96712.09
2022-12-20T01:27:02.633Z,96701.44
2022-12-20T01:29:29.009Z,96703.67
2022-12-20T01:31:55.428Z,96711.42
2022-12-20T01:34:21.750Z,96702.20
2022-12-20T01:36:48.122Z,96695.92
2022-12-20T01:39:14.511Z,96693.63
2022-12-20T01:41:40.876Z,96690.38
2022-12-20T01:44:07.234Z,96691.56
2022-12-20T01:46:33.724Z,96688.64
2022-12-20T01:48:59.969Z,96697.29
2022-12-20T01:51:26.319Z,96689.81
2022-12-20T01:53:52.732Z,96682.89
2022-12-20T01:56:19.051Z,96678.56
2022-12-20T01:58:45.449Z,96679.41
2022-12-20T02:01:11.838Z,96676.20
2022-12-20T02:03:38.242Z,96673.14
2022-12-20T02:06:04.550Z,96657.63
2022-12-20T02:08:30.972Z,96658.02
2022-12-20T02:10:57.323Z,96664.48
2022-12-20T02:13:23.736Z,96655.25
2022-12-20T02:15:50.077Z,96663.64
2022-12-20T02:18:16.461Z,96654.52
2022-12-20T02:20:42.804Z,96651.83
2022-12-20T02:23:09.186Z,96649.88
2022-12-20T02:25:35.553Z,96658.85
2022-12-20T02:28:01.922Z,96664.41
2022-12-20T02:30:28.285Z,96660.98
2022-12-20T02:32:54.666Z,96655.70
2022-12-20T02:35:21.023Z,96655.81
2022-12-20T02:37:47.407Z,96657.45
2022-12-20T02:40:13.771Z,96655.44
2022-12-20T02:42:40.178Z,96658.75
2022-12-20T02:45:06.528Z,96657.45
2022-12-20T02:47:32.913Z,96655.25
2022-12-20T02:49:59.253Z,96653.43
2022-12-20T02:52:25.651Z,96649.35
2022-12-20T02:54:52.096Z,96650.65
2022-12-20T02:57:18.500Z,96655.36
2022-12-20T02:59:45.220Z,96645.02
2022-12-20T03:02:11.804Z,96641.04
2022-12-20T03:04:37.955Z,96645.02
2022-12-20T03:07:04.388Z,96646.20
2022-12-20T03:09:30.704Z,96638.08
2022-12-20T03:11:57.088Z,96642.72
2022-12-20T03:14:23.434Z,96639.60
2022-12-20T03:16:49.866Z,96643.22
2022-12-20T03:19:16.183Z,96635.81
2022-12-20T03:21:42.562Z,96633.09
2022-12-20T03:24:08.913Z,96626.09
2022-12-20T03:26:35.308Z,96634.58
2022-12-20T03:29:01.662Z,96636.63
2022-12-20T03:31:28.142Z,96633.22
2022-12-20T03:33:54.411Z,96627.73
2022-12-20T03:36:20.798Z,96629.03
2022-12-20T03:38:47.142Z,96627.20
2022-12-20T03:41:13.546Z,96634.69
2022-12-20T03:43:39.895Z,96630.33
2022-12-20T03:46:06.383Z,96634.05
2022-12-20T03:48:32.675Z,96633.85
2022-12-20T03:50:59.060Z,96633.67
2022-12-20T03:53:25.552Z,96628.69
2022-12-20T03:55:51.937Z,96625.16
2022-12-20T03:58:18.280Z,96631.72
2022-12-20T04:00:44.681Z,96625.64
2022-12-20T04:03:11.118Z,96620.82
2022-12-20T04:05:37.420Z,96615.00
2022-12-20T04:08:03.768Z,96623.52
2022-12-20T04:10:30.155Z,96619.00
2022-12-20T04:12:56.498Z,96611.05
2022-12-20T04:15:22.883Z,96614.02
2022-12-20T04:17:49.235Z,96617.89
2022-12-20T04:20:15.617Z,96614.55
2022-12-20T04:22:41.962Z,96609.76
2022-12-20T04:25:08.362Z,96609.30
2022-12-20T04:27:34.737Z,96611.25
2022-12-20T04:30:01.083Z,96610.48
2022-12-20T04:32:27.436Z,96609.50
2022-12-20T04:34:53.849Z,96605.32
2022-12-20T04:37:20.200Z,96607.91
2022-12-20T04:39:46.583Z,96604.21
2022-12-20T04:42:12.922Z,96598.52
2022-12-20T04:44:39.303Z,96603.76
2022-12-20T04:47:05.661Z,96605.05
2022-12-20T04:49:32.091Z,96599.80
2022-12-20T04:51:58.422Z,96595.55
2022-12-20T04:54:24.803Z,96594.33
2022-12-20T04:56:51.224Z,96595.63
2022-12-20T04:59:17.571Z,96599.15
2022-12-20T05:01:43.988Z,96601.30
2022-12-20T05:04:10.355Z,96599.88
2022-12-20T05:06:36.646Z,96597.95
2022-12-20T05:09:03.038Z,96590.50
2022-12-20T05:11:29.385Z,96588.75
2022-12-20T05:13:55.762Z,96592.17
2022-12-20T05:16:22.146Z,96596.52
2022-12-20T05:18:49.647Z,96595.41
2022-12-20T05:21:14.841Z,96589.97
2022-12-20T05:23:41.267Z,96598.83
2022-12-20T05:26:07.609Z,96590.33
2022-12-20T05:28:33.995Z,96590.59
2022-12-20T05:31:00.408Z,96594.86
2022-12-20T05:33:33.634Z,96593.11
2022-12-20T05:35:53.073Z,96588.59
2022-12-20T05:38:19.455Z,96594.03
2022-12-20T05:40:45.794Z,96593.61
2022-12-20T05:43:12.186Z,96595.80
2022-12-20T05:45:38.536Z,96598.08
2022-12-20T05:48:04.937Z,96595.56
2022-12-20T05:50:31.288Z,96605.65
2022-12-20T05:52:57.732Z,96605.84
2022-12-20T05:55:24.065Z,96603.33
2022-12-20T05:57:50.456Z,96607.59
2022-12-20T06:00:16.815Z,96601.68
2022-12-20T06:02:43.396Z,96603.88
2022-12-20T06:05:09.544Z,96609.80
2022-12-20T06:07:35.931Z,96606.07
2022-12-20T06:10:02.281Z,96602.55
2022-12-20T06:12:28.711Z,96602.63
2022-12-20T06:14:55.044Z,96611.47
2022-12-20T06:17:21.433Z,96618.13
2022-12-20T06:19:47.778Z,96609.01
2022-12-20T06:22:14.173Z,96605.94
2022-12-20T06:24:45.990Z,96612.24
2022-12-20T06:27:06.920Z,96613.14
2022-12-20T06:29:33.291Z,96614.33
2022-12-20T06:31:59.761Z,96608.69
2022-12-20T06:34:26.041Z,96616.97
2022-12-20T06:36:52.443Z,96613.80
2022-12-20T06:39:18.797Z,96612.94
2022-12-20T06:41:45.177Z,96610.98
2022-12-20T06:44:11.526Z,96604.41
2022-12-20T06:46:38.075Z,96608.61
2022-12-20T06:49:04.316Z,96603.22
2022-12-20T06:51:30.702Z,96594.78
2022-12-20T06:53:57.049Z,96600.59
2022-12-20T06:56:23.443Z,96598.38
2022-12-20T06:58:49.779Z,96595.57
2022-12-20T07:01:16.223Z,96589.30
2022-12-20T07:03:42.559Z,96590.17
2022-12-20T07:06:08.917Z,96587.66
2022-12-20T07:08:35.287Z,96587.47
2022-12-20T07:11:01.685Z,96584.28
2022-12-20T07:13:28.036Z,96580.84
2022-12-20T07:15:54.417Z,96577.42
2022-12-20T07:18:20.757Z,96578.52
2022-12-20T07:20:47.140Z,96580.98
2022-12-20T07:23:13.546Z,96579.27
2022-12-20T07:25:39.936Z,96577.05
2022-12-20T07:28:06.304Z,96572.08
2022-12-20T07:30:32.697Z,96571.32
2022-12-20T07:32:59.142Z,96571.16
2022-12-20T07:35:25.462Z,96573.54
2022-12-20T07:37:51.864Z,96571.87
2022-12-20T07:40:18.197Z,96566.80
2022-12-20T07:42:48.530Z,96566.52
2022-12-20T07:45:11.016Z,96568.91
2022-12-20T07:47:37.400Z,96571.25
2022-12-20T07:50:03.751Z,96571.03
2022-12-20T07:52:30.132Z,96571.32
2022-12-20T07:54:56.483Z,96574.09
2022-12-20T07:57:22.881Z,96568.98
2022-12-20T07:59:49.231Z,96556.91
2022-12-20T08:02:15.883Z,96568.34
2022-12-20T08:04:42.043Z,96556.48
2022-12-20T08:07:08.405Z,96559.54
2022-12-20T08:09:34.792Z,96559.54
2022-12-20T08:12:01.169Z,96547.86
2022-12-20T08:14:27.537Z,96547.86
2022-12-20T08:16:54.072Z,96547.64
2022-12-20T08:19:20.357Z,96549.03
2022-12-20T08:21:46.749Z,96549.03
2022-12-20T08:24:13.109Z,96554.34
2022-12-20T08:26:39.509Z,96552.45
2022-12-20T08:29:05.866Z,96537.48
2022-12-20T08:31:32.337Z,96545.42
2022-12-20T08:33:58.604Z,96548.48
2022-12-20T08:36:24.970Z,96547.86
2022-12-20T08:38:51.325Z,96541.63
2022-12-20T08:41:17.732Z,96533.39
2022-12-20T08:43:44.093Z,96517.02
2022-12-20T08:46:10.572Z,96517.02
2022-12-20T08:48:36.821Z,96530.95
2022-12-20T08:51:03.279Z,96527.99
2022-12-20T08:53:29.545Z,96523.64
2022-12-20T08:55:55.970Z,96521.67
2022-12-20T08:58:22.294Z,96516.70
2022-12-20T09:00:48.704Z,96526.70
2022-12-20T09:03:15.198Z,96522.88
2022-12-20T09:05:41.438Z,96522.88
2022-12-20T09:08:07.827Z,96518.03
2022-12-20T09:10:34.236Z,96498.55
2022-12-20T09:13:00.562Z,96517.14
2022-12-20T09:15:27.009Z,96499.53
2022-12-20T09:17:53.325Z,96498.23
2022-12-20T09:20:19.712Z,96469.03
2022-12-20T09:22:46.059Z,96469.03
2022-12-20T09:25:12.488Z,96469.55
2022-12-20T09:27:38.904Z,96469.55
2022-12-20T09:30:05.705Z,96485.97
2022-12-20T09:32:33.321Z,96484.59
2022-12-20T09:34:59.752Z,96471.75
2022-12-20T09:37:26.851Z,96470.55
2022-12-20T09:39:54.013Z,96474.40
2022-12-20T09:42:20.407Z,96477.14
2022-12-20T09:44:46.834Z,96474.40
2022-12-20T09:47:13.347Z,96467.00
2022-12-20T09:49:39.621Z,96459.91
2022-12-20T09:52:06.032Z,96459.91
2022-12-20T09:54:32.420Z,96430.92
2022-12-20T09:56:58.795Z,96451.53
2022-12-20T09:59:25.178Z,96442.11
2022-12-20T10:01:51.568Z,96446.02
2022-12-20T10:04:18.151Z,96442.67
2022-12-20T10:06:44.244Z,96433.97
2022-12-20T10:09:10.640Z,96427.86
2022-12-20T10:11:43.401Z,96415.42
2022-12-20T10:14:03.403Z,96418.22
2022-12-20T10:16:29.845Z,96413.63
2022-12-20T10:18:56.159Z,96405.72
2022-12-20T10:21:22.508Z,96404.28
2022-12-20T10:23:48.896Z,96393.20
2022-12-20T10:26:15.358Z,96386.16
2022-12-20T10:28:41.734Z,96378.70
2022-12-20T10:31:08.139Z,96370.44
2022-12-20T10:33:34.560Z,96362.06
2022-12-20T10:36:00.832Z,96354.17
2022-12-20T10:38:27.216Z,96347.91
2022-12-20T10:41:20.206Z,96341.42
2022-12-20T10:43:19.987Z,96340.13
2022-12-20T10:45:46.317Z,96328.55
2022-12-20T10:48:12.702Z,96335.17
2022-12-20T10:50:39.045Z,96325.72
2022-12-20T10:53:05.507Z,96317.83
2022-12-20T10:55:31.845Z,96318.53
2022-12-20T10:57:58.234Z,96311.55
2022-12-20T11:00:24.600Z,96310.52
2022-12-20T11:02:51.338Z,96305.55
2022-12-20T11:05:17.480Z,96304.36
2022-12-20T11:08:08.454Z,96304.81
2022-12-20T11:10:10.251Z,96305.41
2022-12-20T11:12:36.641Z,96300.33
2022-12-20T11:15:03.020Z,96300.09
2022-12-20T11:17:29.389Z,96298.09
2022-12-20T11:19:55.753Z,96290.88
2022-12-20T11:22:22.187Z,96288.28
2022-12-20T11:24:48.539Z,96286.52
2022-12-20T11:27:15.864Z,96280.73
2022-12-20T11:29:41.293Z,96276.47
2022-12-20T11:32:07.656Z,96273.37
2022-12-20T11:34:33.997Z,96270.78
2022-12-20T11:37:00.388Z,96267.48
2022-12-20T11:39:26.745Z,96267.48
2022-12-20T11:41:53.277Z,96264.19
2022-12-20T11:44:27.651Z,96261.70
2022-12-20T11:46:46.042Z,96266.29
2022-12-20T11:49:12.467Z,96254.98
2022-12-20T11:51:38.756Z,96253.91
2022-12-20T11:54:05.109Z,96243.17
2022-12-20T11:56:31.514Z,96243.91
2022-12-20T11:58:57.849Z,96241.64
2022-12-20T12:01:24.292Z,96245.63
2022-12-20T12:03:50.602Z,96241.73
2022-12-20T12:06:17.006Z,96229.83
2022-12-20T12:08:43.342Z,96238.58
2022-12-20T12:11:25.488Z,96232.09
2022-12-20T12:13:36.072Z,96237.42
2022-12-20T12:16:02.490Z,96234.09
2022-12-20T12:18:28.801Z,96225.84
2022-12-20T12:20:55.205Z,96222.92
2022-12-20T12:23:21.551Z,96226.58
2022-12-20T12:25:47.939Z,96227.14
2022-12-20T12:28:14.275Z,96227.41
2022-12-20T12:30:40.681Z,96220.09
2022-12-20T12:33:07.742Z,96224.31
2022-12-20T12:35:33.406Z,96221.25
2022-12-20T12:37:59.744Z,96222.42
2022-12-20T12:40:26.150Z,96222.92
2022-12-20T12:42:52.479Z,96219.36
2022-12-20T12:45:18.880Z,96226.67
2022-12-20T12:47:45.226Z,96221.85
2022-12-20T12:50:11.678Z,96213.94
2022-12-20T12:52:38.005Z,96218.30
2022-12-20T12:55:04.520Z,96219.26
2022-12-20T12:57:30.847Z,96217.27
2022-12-20T12:59:57.257Z,96220.42
2022-12-20T13:02:23.825Z,96219.03
2022-12-20T13:04:50.018Z,96219.86
2022-12-20T13:07:16.400Z,96219.66
2022-12-20T13:09:42.786Z,96206.81
2022-12-20T13:12:11.894Z,96210.20
2022-12-20T13:14:35.677Z,96206.91
2022-12-20T13:17:12.220Z,96202.08
2022-12-20T13:19:28.417Z,96196.08
2022-12-20T13:21:54.815Z,96199.48
2022-12-20T13:24:21.204Z,96192.86
2022-12-20T13:26:47.547Z,96194.06
2022-12-20T13:29:13.958Z,96201.83
2022-12-20T13:31:40.344Z,96203.84
2022-12-20T13:34:06.815Z,96197.12
2022-12-20T13:36:33.167Z,96201.70
2022-12-20T13:38:59.601Z,96191.58
2022-12-20T13:41:31.120Z,96193.09
2022-12-20T13:43:52.383Z,96186.96
2022-12-20T13:46:18.772Z,96181.98
2022-12-20T13:48:45.150Z,96181.41
2022-12-20T13:51:11.499Z,96183.42
2022-12-20T13:53:37.887Z,96188.27
2022-12-20T13:56:04.267Z,96182.59
2022-12-20T13:58:30.658Z,96178.58
2022-12-20T14:00:57.055Z,96180.70
2022-12-20T14:03:23.514Z,96188.38
2022-12-20T14:05:50.702Z,96184.25
2022-12-20T14:08:16.125Z,96181.28
2022-12-20T14:10:42.468Z,96184.95
2022-12-20T14:13:08.865Z,96173.15
2022-12-20T14:15:35.257Z,96171.50
2022-12-20T14:18:01.609Z,96164.30
2022-12-20T14:20:27.964Z,96164.55
2022-12-20T14:23:04.526Z,96163.47
2022-12-20T14:25:23.191Z,96162.30
2022-12-20T14:27:49.581Z,96163.47
2022-12-20T14:30:15.923Z,96165.60
2022-12-20T14:32:42.304Z,96164.67
2022-12-20T14:35:08.679Z,96165.61
2022-12-20T14:37:35.062Z,96162.56
2022-12-20T14:40:01.452Z,96159.14
2022-12-20T14:42:27.833Z,96160.33
2022-12-20T14:44:54.187Z,96157.84
2022-12-20T14:47:20.603Z,96155.73
2022-12-20T14:49:46.940Z,96154.64
2022-12-20T14:52:13.348Z,96163.97
2022-12-20T14:55:07.012Z,96157.84
2022-12-20T14:57:06.101Z,96156.06
2022-12-20T14:59:32.443Z,96156.53
2022-12-20T15:01:58.954Z,96149.45
2022-12-20T15:04:25.179Z,96149.34
2022-12-20T15:06:51.583Z,96142.05
2022-12-20T15:09:17.922Z,96143.11
2022-12-20T15:11:44.312Z,96142.39
2022-12-20T15:14:10.656Z,96147.12
2022-12-20T15:16:37.071Z,96141.94
2022-12-20T15:19:03.417Z,96141.34
2022-12-20T15:21:29.794Z,96138.97
2022-12-20T15:23:56.154Z,96138.75
2022-12-20T15:26:22.534Z,96138.28
2022-12-20T15:28:48.884Z,96143.00
2022-12-20T15:31:15.364Z,96146.30
2022-12-20T15:33:41.663Z,96147.78
2022-12-20T15:36:08.093Z,96150.51
2022-12-20T15:39:03.268Z,96145.32
2022-12-20T15:41:00.960Z,96150.62
2022-12-20T15:43:27.335Z,96148.84
2022-12-20T15:45:53.740Z,96148.26
2022-12-20T15:48:20.075Z,96144.59
2022-12-20T15:50:46.481Z,96150.25
2022-12-20T15:53:12.816Z,96155.11
2022-12-20T15:55:40.223Z,96147.20
2022-12-20T15:58:05.572Z,96145.17
2022-12-20T16:00:31.942Z,96147.20
2022-12-20T16:02:58.395Z,96144.34
2022-12-20T16:05:24.664Z,96143.28
2022-12-20T16:07:51.009Z,96142.34
2022-12-20T16:10:18.235Z,96134.70
2022-12-20T16:12:44.565Z,96143.65
2022-12-20T16:15:10.952Z,96139.99
2022-12-20T16:17:37.296Z,96141.98
2022-12-20T16:20:03.677Z,96141.05
2022-12-20T16:22:30.022Z,96141.05
2022-12-20T16:24:56.448Z,96144.11
2022-12-20T16:27:22.787Z,96147.64
2022-12-20T16:29:49.187Z,96136.67
2022-12-20T16:32:15.584Z,96133.48
2022-12-20T16:34:41.934Z,96137.05
2022-12-20T16:37:08.349Z,96133.71
2022-12-20T16:39:34.741Z,96133.71
2022-12-20T16:42:01.105Z,96134.41
2022-12-20T16:44:27.481Z,96117.92
2022-12-20T16:46:53.900Z,96107.95
2022-12-20T16:49:21.083Z,96119.05
2022-12-20T16:51:46.570Z,96118.39
2022-12-20T16:54:21.079Z,96123.57
2022-12-20T16:56:39.316Z,96093.56
2022-12-20T16:59:19.130Z,96112.80
2022-12-20T17:01:32.092Z,96112.20
2022-12-20T17:03:58.384Z,96108.91
2022-12-20T17:06:24.741Z,96111.14
2022-12-20T17:08:54.168Z,96105.83
2022-12-20T17:11:20.516Z,96101.94
2022-12-20T17:13:47.180Z,96107.34
2022-12-20T17:16:13.521Z,96078.93
2022-12-20T17:18:39.875Z,96111.13
2022-12-20T17:21:06.230Z,96110.23
2022-12-20T17:23:32.600Z,96108.75
2022-12-20T17:25:58.949Z,96106.59
2022-12-20T17:28:25.328Z,96107.71
2022-12-20T17:30:51.677Z,96104.16
2022-12-20T17:33:18.058Z,96104.61
2022-12-20T17:35:44.402Z,96099.16
2022-12-20T17:38:10.793Z,96094.66
2022-12-20T17:40:37.131Z,96103.69
2022-12-20T17:43:03.513Z,96103.69
2022-12-20T17:45:30.061Z,96111.25
2022-12-20T17:47:56.246Z,96091.77
2022-12-20T17:50:22.626Z,96091.77
2022-12-20T17:52:49.008Z,96098.30
2022-12-20T17:55:15.359Z,96098.30
2022-12-20T17:57:41.691Z,96109.70
2022-12-20T18:00:08.086Z,96109.70
2022-12-20T18:02:34.526Z,96110.81
2022-12-20T18:05:00.922Z,96108.80
2022-12-20T18:07:27.262Z,96109.26
2022-12-20T18:09:53.681Z,96108.88
2022-12-20T18:12:20.074Z,96091.15
2022-12-20T18:14:46.432Z,96101.99
2022-12-20T18:17:12.952Z,96099.61
2022-12-20T18:19:39.199Z,96099.72
2022-12-20T18:22:05.564Z,96101.81
2022-12-20T18:24:31.971Z,96102.58
2022-12-20T18:26:58.295Z,96100.27
2022-12-20T18:29:24.690Z,96103.69
2022-12-20T18:31:51.092Z,96098.18
2022-12-20T18:34:17.428Z,96096.97
2022-12-20T18:36:43.746Z,96101.03
2022-12-20T18:39:10.210Z,96098.08
2022-12-20T18:41:36.558Z,96094.59
2022-12-20T18:44:02.960Z,96089.25
2022-12-20T18:46:29.402Z,96089.55
2022-12-20T18:48:55.718Z,96087.62
2022-12-20T18:51:22.056Z,96083.00
2022-12-20T18:53:48.445Z,96080.61
2022-12-20T18:56:14.792Z,96083.56
2022-12-20T18:58:41.197Z,96078.86
2022-12-20T19:01:07.611Z,96082.66
2022-12-20T19:03:33.932Z,96075.19
2022-12-20T19:06:00.277Z,96070.23
2022-12-20T19:08:27.872Z,96073.00
2022-12-20T19:10:53.009Z,96067.55
2022-12-20T19:13:19.394Z,96064.43
2022-12-20T19:15:45.743Z,96066.71
2022-12-20T19:18:12.129Z,96058.81
2022-12-20T19:20:38.477Z,96058.81
2022-12-20T19:23:04.870Z,96054.88
2022-12-20T19:25:31.217Z,96056.05
2022-12-20T19:27:57.628Z,96053.53
2022-12-20T19:30:23.966Z,96054.00
2022-12-20T19:32:50.366Z,96051.33
2022-12-20T19:35:52.752Z,96051.55
2022-12-20T19:37:43.103Z,96052.42
2022-12-20T19:40:09.454Z,96044.07
2022-12-20T19:42:35.845Z,96043.73
2022-12-20T19:45:03.554Z,96048.69
2022-12-20T19:47:28.593Z,96039.41
2022-12-20T19:49:54.943Z,96035.53
2022-12-20T19:52:28.084Z,96038.91
2022-12-20T19:54:47.687Z,96038.25
2022-12-20T19:57:15.107Z,96038.81
2022-12-20T19:59:40.412Z,96036.26
2022-12-20T20:02:06.928Z,96031.98
2022-12-20T20:04:33.131Z,96029.87
2022-12-20T20:06:59.522Z,96033.04
2022-12-20T20:09:25.862Z,96032.94
2022-12-20T20:11:52.262Z,96042.39
2022-12-20T20:14:18.608Z,96043.58
2022-12-20T20:16:45.037Z,96045.97
2022-12-20T20:19:11.379Z,96040.77
2022-12-20T20:21:37.750Z,96035.86
2022-12-20T20:24:04.096Z,96037.17
2022-12-20T20:26:30.507Z,96038.28
2022-12-20T20:28:56.870Z,96035.81
2022-12-20T20:31:23.294Z,96032.67
2022-12-20T20:33:49.604Z,96040.48
2022-12-20T20:36:15.983Z,96034.17
2022-12-20T20:38:42.328Z,96036.82
2022-12-20T20:41:08.712Z,96029.47
2022-12-20T20:43:35.054Z,96025.02
2022-12-20T20:46:01.514Z,96023.66
2022-12-20T20:48:27.800Z,96017.20
2022-12-20T20:50:54.186Z,96014.53
2022-12-20T20:53:20.527Z,96014.74
2022-12-20T20:55:46.963Z,96013.17
2022-12-20T20:58:13.272Z,96010.34
2022-12-20T21:00:39.662Z,96011.33
2022-12-20T21:03:06.289Z,96014.03
2022-12-20T21:06:32.386Z,96012.38
2022-12-20T21:07:58.753Z,96007.33
2022-12-20T21:10:25.304Z,96009.78
2022-12-20T21:12:51.528Z,96001.54
2022-12-20T21:15:22.993Z,96002.13
2022-12-20T21:17:44.249Z,96012.00
2022-12-20T21:20:10.644Z,96005.23
2022-12-20T21:22:36.998Z,96002.52
2022-12-20T21:25:03.382Z,96002.98
2022-12-20T21:27:29.718Z,96009.02
2022-12-20T21:29:56.168Z,96006.48
2022-12-20T21:32:22.516Z,95997.26
2022-12-20T21:34:48.902Z,95998.15
2022-12-20T21:37:15.248Z,96000.64
2022-12-20T21:39:41.639Z,95996.98
2022-12-20T21:42:07.990Z,95994.03
2022-12-20T21:44:34.376Z,95986.23
2022-12-20T21:47:00.804Z,95991.28
2022-12-20T21:49:27.097Z,95980.95
2022-12-20T21:51:53.438Z,95980.55
2022-12-20T21:54:19.833Z,95988.27
2022-12-20T21:56:46.181Z,95982.51
2022-12-20T21:59:12.639Z,95980.91
2022-12-20T22:01:39.134Z,95979.05
2022-12-20T22:04:05.385Z,95976.16
2022-12-20T22:06:31.752Z,95977.08
2022-12-20T22:08:58.116Z,95979.91
2022-12-20T22:11:24.509Z,95973.82
2022-12-20T22:13:50.900Z,95977.23
2022-12-20T22:16:17.253Z,95971.23
2022-12-20T22:18:43.615Z,95972.16
2022-12-20T22:21:09.979Z,95970.87
2022-12-20T22:23:36.348Z,95965.82
2022-12-20T22:26:02.707Z,95968.50
2022-12-20T22:28:29.093Z,95970.87
2022-12-20T22:30:55.496Z,95964.17
2022-12-20T22:33:21.878Z,95960.92
2022-12-20T22:35:48.223Z,95955.80
2022-12-20T22:38:14.618Z,95947.55
2022-12-20T22:40:40.972Z,95946.81
2022-12-20T22:43:07.382Z,95948.59
2022-12-20T22:45:33.741Z,95945.72
2022-12-20T22:48:00.089Z,95940.17
2022-12-20T22:50:26.431Z,95925.47
2022-12-20T22:52:52.777Z,95925.59
2022-12-20T22:55:19.125Z,95916.19
2022-12-20T22:57:45.473Z,95903.40
2022-12-20T23:00:11.855Z,95914.06
2022-12-20T23:02:38.304Z,95906.20
2022-12-20T23:05:04.552Z,95907.83
2022-12-20T23:07:30.902Z,95908.81
2022-12-20T23:09:57.288Z,95907.19
2022-12-20T23:12:23.596Z,95900.67
2022-12-20T23:14:49.929Z,95902.08
2022-12-20T23:17:16.339Z,95903.92
2022-12-20T23:19:42.676Z,95907.50
2022-12-20T23:22:09.030Z,95903.50
2022-12-20T23:24:35.386Z,95898.66
2022-12-20T23:27:01.770Z,95895.45
2022-12-20T23:29:28.116Z,95893.59
2022-12-20T23:31:54.508Z,95901.80
2022-12-20T23:34:20.804Z,95902.47
2022-12-20T23:36:47.157Z,95895.00
2022-12-20T23:39:13.492Z,95891.92
2022-12-20T23:41:39.842Z,95890.63
2022-12-20T23:44:06.197Z,95885.59
2022-12-20T23:46:32.570Z,95877.48
2022-12-20T23:48:58.889Z,95867.98
2022-12-20T23:51:25.255Z,95872.98
2022-12-20T23:53:51.579Z,95868.34
2022-12-20T23:56:17.931Z,95864.78
2022-12-20T23:58:44.278Z,95869.36
